Time;durP1;ratioP1;P1;durP2;ratioP2;P2;SDS_P1;SDS_P2;PMS_P1;PMS_P2;Temp;Humidity;BMP_temperature;BMP_pressure;BME280_temperature;BME280_humidity;BME280_pressure;Samples;Min_cycle;Max_cycle;Signal;HPM_P1;HPM_P2
2022/10/03 00:00:13;;;;;;;6.17;5.67;;;;;;;-142.65;90.62;50168.78;5095663;28;20210;-68
2022/10/03 00:02:39;;;;;;;7.13;5.27;;;;;;;-142.65;90.17;50164.81;5095741;28;20279;-68
2022/10/03 00:05:27;;;;;;;8.10;5.73;;;;;;;-142.65;90.12;50174.75;5095332;28;20338;-68
2022/10/03 00:08:03;;;;;;;6.57;5.07;;;;;;;-142.65;90.30;50176.75;5095616;28;20178;-68
2022/10/03 00:10:48;;;;;;;5.17;4.83;;;;;;;-142.65;90.17;50170.78;5095348;28;20248;-68
2022/10/03 00:13:29;;;;;;;8.67;6.03;;;;;;;-142.65;90.49;50178.75;5095242;28;20204;-68
2022/10/03 00:16:12;;;;;;;8.93;5.77;;;;;;;-142.65;90.49;50172.78;5095505;28;20158;-68
2022/10/03 00:18:56;;;;;;;5.30;5.03;;;;;;;-142.65;90.68;50164.81;5095081;28;20170;-68
2022/10/03 00:21:51;;;;;;;11.10;5.47;;;;;;;-142.65;90.90;50176.75;5095369;28;20185;-68
2022/10/03 00:24:30;;;;;;;6.10;5.80;;;;;;;-142.65;91.08;50178.75;5057245;28;20230;-68
2022/10/03 00:26:59;;;;;;;6.13;4.90;;;;;;;-142.65;91.28;50178.75;5095283;28;20174;-68
2022/10/03 00:29:38;;;;;;;6.13;5.60;;;;;;;-142.65;90.99;50178.75;5076735;28;20295;-68
2022/10/03 00:32:22;;;;;;;7.50;5.77;;;;;;;;;;5095159;28;20178;-68
2022/10/03 00:35:22;;;;;;;6.53;6.03;;;;;;;-142.65;91.01;50174.75;5095088;28;20168;-68
2022/10/03 00:38:26;;;;;;;6.37;5.93;;;;;;;-142.65;91.40;50178.75;5094743;28;20186;-68
2022/10/03 00:41:19;;;;;;;5.80;5.30;;;;;;;-142.65;91.71;50176.75;5095399;28;20556;-68
2022/10/03 00:44:19;;;;;;;6.37;5.87;;;;;;;-142.65;91.92;50170.78;5056738;28;20679;-68
2022/10/03 00:47:10;;;;;;;7.87;6.23;;;;;;;-142.65;92.17;50178.75;5094904;28;20190;-68
2022/10/03 00:50:06;;;;;;;12.73;6.13;;;;;;;-142.65;92.49;50164.81;5094672;28;20202;-68
2022/10/03 00:52:44;;;;;;;6.27;5.77;;;;;;;-142.65;92.47;50170.78;5094794;28;20218;-68
2022/10/03 00:55:33;;;;;;;6.00;5.47;;;;;;;-142.65;92.60;50168.78;5094435;28;20177;-68
2022/10/03 00:58:22;;;;;;;7.90;5.87;;;;;;;-142.65;92.48;50168.78;5094726;28;20185;-68
2022/10/03 01:00:50;;;;;;;6.53;5.97;;;;;;;-142.65;92.38;50178.75;5094261;28;20198;-68
2022/10/03 01:03:33;;;;;;;6.40;5.07;;;;;;;-142.65;92.51;50174.75;5094286;28;20620;-68
2022/10/03 01:06:05;;;;;;;4.90;4.70;;;;;;;-142.65;92.81;50170.78;5094800;28;20233;-68
2022/10/03 01:08:50;;;;;;;15.53;6.50;;;;;;;;;;5094437;28;20183;-68
2022/10/03 01:11:54;;;;;;;9.10;6.43;;;;;;;-142.65;93.18;50170.78;5094170;28;20188;-68
2022/10/03 01:14:31;;;;;;;6.57;5.97;;;;;;;-142.65;93.36;50170.78;5094395;28;20185;-68
2022/10/03 01:17:17;;;;;;;6.07;5.77;;;;;;;-142.65;93.53;50178.75;5094074;28;20180;-68
2022/10/03 01:20:02;;;;;;;9.93;5.87;;;;;;;-142.65;93.75;50170.78;5093957;28;20220;-68
2022/10/03 01:22:59;;;;;;;8.80;5.63;;;;;;;-142.65;93.89;50180.75;5094174;28;20166;-68
2022/10/03 01:25:55;;;;;;;9.87;6.17;;;;;;;-142.65;94.07;50176.75;5093836;28;20689;-67
2022/10/03 01:31:52;;;;;;;6.10;5.60;;;;;;;-142.65;94.13;50178.75;5094360;28;20186;-68
2022/10/03 01:34:36;;;;;;;14.20;6.07;;;;;;;-142.65;93.71;50178.75;5093737;28;20178;-68
2022/10/03 01:37:26;;;;;;;8.37;5.93;;;;;;;-142.65;93.57;50170.78;5094214;28;20184;-68
2022/10/03 01:40:06;;;;;;;6.10;5.70;;;;;;;-142.65;93.77;50168.78;5093597;28;20205;-68
2022/10/03 01:42:40;;;;;;;9.77;5.77;;;;;;;-142.65;93.82;50164.81;5093853;28;20181;-68
2022/10/03 01:45:19;;;;;;;6.40;5.87;;;;;;;-142.65;94.33;50178.75;5076214;28;20636;-68
2022/10/03 01:47:50;;;;;;;13.33;6.23;;;;;;;;;;5093837;28;20178;-68
2022/10/03 01:50:33;;;;;;;10.10;6.97;;;;;;;-142.65;94.54;50172.78;5093526;28;20213;-68
2022/10/03 01:53:13;;;;;;;10.57;6.43;;;;;;;-142.65;95.03;50178.75;5093834;28;20616;-68
2022/10/03 01:56:05;;;;;;;11.40;7.47;;;;;;;-142.65;95.30;50170.78;5093506;28;20177;-68
2022/10/03 01:58:56;;;;;;;16.00;7.57;;;;;;;-142.65;95.46;50170.78;5093720;28;20591;-68
2022/10/03 02:01:25;;;;;;;6.97;6.07;;;;;;;-142.65;95.21;50168.78;5093733;28;20177;-68
2022/10/03 02:04:30;;;;;;;6.90;6.43;;;;;;;-142.65;95.45;50170.78;5093355;28;20193;-68
2022/10/03 02:07:28;;;;;;;9.03;5.60;;;;;;;-142.65;95.40;50172.78;5042609;28;20203;-68
2022/10/03 02:10:18;;;;;;;7.10;6.33;;;;;;;-142.65;95.25;50170.78;5093381;28;20209;-68
2022/10/03 02:12:57;;;;;;;9.97;6.70;;;;;;;-142.65;95.46;50176.75;5093234;28;20249;-68
2022/10/03 02:15:56;;;;;;;6.17;5.43;;;;;;;-142.65;95.46;50168.78;5093566;28;20175;-68
2022/10/03 02:18:49;;;;;;;6.70;5.83;;;;;;;-142.65;95.30;50168.78;5092755;28;20693;-68
2022/10/03 02:21:28;;;;;;;6.33;5.83;;;;;;;;;;5093213;28;20192;-68
2022/10/03 02:24:16;;;;;;;7.57;6.10;;;;;;;-142.65;95.12;50178.75;5097627;28;20171;-68
2022/10/03 02:27:05;;;;;;;5.13;4.93;;;;;;;-142.65;95.18;50168.78;5097228;28;20213;-68
2022/10/03 02:29:41;;;;;;;5.37;5.03;;;;;;;-142.65;95.24;50176.75;5097359;28;20222;-68
2022/10/03 02:32:26;;;;;;;4.70;4.43;;;;;;;-142.65;95.16;50170.78;5097438;28;20196;-68
2022/10/03 02:35:11;;;;;;;5.03;4.70;;;;;;;-142.65;95.06;50170.78;5097997;28;20507;-68
2022/10/03 02:37:59;;;;;;;4.40;4.30;;;;;;;-142.65;95.01;50176.75;5097422;28;20174;-68
2022/10/03 02:40:40;;;;;;;6.87;6.33;;;;;;;-142.65;95.00;50176.75;5096975;28;20208;-68
2022/10/03 02:43:34;;;;;;;5.80;5.37;;;;;;;-142.65;94.76;50170.78;5097292;28;20189;-68
2022/10/03 02:46:38;;;;;;;5.73;5.33;;;;;;;-142.65;94.55;50174.75;5097157;28;20194;-68
2022/10/03 02:49:35;;;;;;;8.60;5.80;;;;;;;-142.65;94.39;50172.78;5096762;28;20683;-68
2022/10/03 02:52:23;;;;;;;6.43;5.93;;;;;;;-142.65;94.44;50170.78;5097079;28;20183;-68
2022/10/03 02:54:57;;;;;;;5.57;5.27;;;;;;;-142.65;94.49;50182.72;5096797;28;20178;-68
2022/10/03 02:57:34;;;;;;;6.17;5.60;;;;;;;-142.65;94.36;50170.78;5096744;28;20178;-68
2022/10/03 03:00:05;;;;;;;9.73;5.87;;;;;;;-142.65;94.43;50162.81;5097198;28;20208;-68
2022/10/03 03:03:00;;;;;;;5.97;5.37;;;;;;;-142.65;94.49;50168.78;5096934;28;20174;-68
2022/10/03 03:05:57;;;;;;;5.93;5.50;;;;;;;-142.65;94.42;50174.75;5096781;28;20200;-68
2022/10/03 03:08:42;;;;;;;5.10;4.90;;;;;;;-142.65;94.37;50170.78;5096543;28;20251;-68
2022/10/03 03:11:47;;;;;;;8.77;5.40;;;;;;;-142.65;94.54;50182.72;5096816;28;20185;-68
2022/10/03 03:14:17;;;;;;;7.33;6.50;;;;;;;-142.65;94.48;50178.75;5096434;28;20601;-68
2022/10/03 03:17:10;;;;;;;6.77;6.03;;;;;;;-142.65;94.37;50174.75;5096666;28;20170;-68
2022/10/03 03:20:06;;;;;;;7.20;5.97;;;;;;;-142.65;94.50;50174.75;5096578;28;20706;-68
2022/10/03 03:22:35;;;;;;;10.30;5.63;;;;;;;-142.65;94.54;50180.75;5096326;28;20182;-68
2022/10/03 03:25:18;;;;;;;5.87;5.53;;;;;;;-142.65;94.61;50178.75;5096322;28;20214;-68
2022/10/03 03:28:18;;;;;;;7.20;6.50;;;;;;;-142.65;94.61;50168.78;5096120;28;20193;-68
2022/10/03 03:30:53;;;;;;;8.03;7.23;;;;;;;-142.65;94.71;50170.78;5096283;28;20843;-68
2022/10/03 03:33:41;;;;;;;7.50;6.90;;;;;;;-142.65;94.80;50170.78;5095596;28;20268;-68
2022/10/03 03:36:19;;;;;;;6.70;6.17;;;;;;;-142.65;94.92;50174.75;5096279;28;20174;-68
2022/10/03 03:38:56;;;;;;;9.03;6.97;;;;;;;-142.65;94.96;50178.75;5096158;28;20189;-68
2022/10/03 03:41:35;;;;;;;7.37;6.60;;;;;;;-142.65;94.98;50172.78;5095860;28;20643;-68
2022/10/03 03:44:19;;;;;;;7.73;7.03;;;;;;;-142.65;94.99;50174.75;5096149;28;20178;-68
2022/10/03 03:47:12;;;;;;;10.40;6.27;;;;;;;-142.65;94.93;50172.78;5095725;28;20204;-68
2022/10/03 03:49:58;;;;;;;8.77;5.60;;;;;;;-142.65;94.83;50162.81;5095848;28;20206;-68
2022/10/03 03:52:44;;;;;;;5.67;5.27;;;;;;;;;;5095684;28;20546;-68
2022/10/03 03:55:58;;;;;;;7.30;6.63;;;;;;;-142.65;94.90;50178.75;5095934;28;20177;-68
2022/10/03 03:59:00;;;;;;;6.57;5.97;;;;;;;-142.65;95.01;50172.78;5066073;28;20212;-68
2022/10/03 04:01:48;;;;;;;8.73;7.43;;;;;;;-142.65;94.95;50178.75;5090824;28;20569;-67
2022/10/03 04:04:57;;;;;;;11.57;6.83;;;;;;;-142.65;95.09;50170.78;5096046;28;20563;-67
2022/10/03 04:07:54;;;;;;;7.23;6.73;;;;;;;-142.65;95.11;50170.78;5095684;28;20640;-67
2022/10/03 04:10:41;;;;;;;9.00;6.60;;;;;;;-142.65;95.25;50164.81;5095826;28;20215;-68
2022/10/03 04:13:26;;;;;;;8.47;5.70;;;;;;;;;;5095177;28;20292;-68
2022/10/03 04:16:10;;;;;;;14.50;6.70;;;;;;;-142.65;95.28;50170.78;5095199;28;20189;-68
2022/10/03 04:18:57;;;;;;;10.47;7.40;;;;;;;-142.65;95.39;50176.75;5095657;28;20167;-68
2022/10/03 04:21:25;;;;;;;9.27;6.80;;;;;;;;;;5095396;28;20188;-68
2022/10/03 04:24:12;;;;;;;10.30;6.67;;;;;;;-142.65;95.57;50162.81;5095656;28;20183;-68
2022/10/03 04:27:00;;;;;;;7.83;7.13;;;;;;;-142.65;95.59;50170.78;5077702;28;20223;-68
2022/10/03 04:29:41;;;;;;;9.00;7.07;;;;;;;-142.65;95.67;50168.78;5094899;28;20206;-68
2022/10/03 04:32:33;;;;;;;7.90;6.83;;;;;;;-142.65;95.76;50178.75;5095252;28;20532;-68
2022/10/03 04:35:19;;;;;;;8.50;7.07;;;;;;;-142.65;95.98;50170.78;5095150;28;20173;-68
2022/10/03 04:37:58;;;;;;;16.43;7.80;;;;;;;-142.65;96.03;50174.75;5095054;28;20188;-68
2022/10/03 04:40:53;;;;;;;8.03;7.47;;;;;;;-142.65;95.99;50168.78;5094743;28;20220;-68
2022/10/03 04:43:59;;;;;;;12.90;7.93;;;;;;;-142.65;96.09;50164.81;5094991;28;20178;-68
2022/10/03 04:46:34;;;;;;;10.37;6.87;;;;;;;-142.65;96.35;50172.78;5063651;28;20233;-68
2022/10/03 04:49:25;;;;;;;12.17;7.73;;;;;;;-142.65;96.24;50174.75;5095056;28;20278;-68
2022/10/03 04:52:05;;;;;;;10.97;8.73;;;;;;;-142.65;96.31;50174.75;5094848;28;20531;-68
2022/10/03 04:54:50;;;;;;;15.50;7.90;;;;;;;;;;5095049;28;20182;-68
2022/10/03 04:57:35;;;;;;;17.37;6.93;;;;;;;-142.65;96.64;50170.78;5094673;28;20180;-68
2022/10/03 05:00:50;;;;;;;9.50;6.90;;;;;;;-142.65;96.38;50172.78;5094442;28;20216;-68
2022/10/03 05:03:59;;;;;;;12.27;7.83;;;;;;;-142.65;96.52;50174.75;5005991;28;20276;-68
2022/10/03 05:06:35;;;;;;;8.37;6.87;;;;;;;-142.65;96.51;50178.75;5094197;28;20197;-68
2022/10/03 05:09:31;;;;;;;10.90;7.30;;;;;;;-142.65;96.38;50174.75;5094468;28;20209;-68
2022/10/03 05:12:02;;;;;;;7.60;6.87;;;;;;;-142.65;96.50;50174.75;5094321;28;20189;-68
2022/10/03 05:15:13;;;;;;;8.73;7.20;;;;;;;-142.65;96.51;50174.75;5094427;28;20181;-68
2022/10/03 05:17:44;;;;;;;8.57;7.33;;;;;;;;;;5076585;28;20202;-68
2022/10/03 05:20:22;;;;;;;19.37;8.43;;;;;;;-142.65;96.45;50172.78;5094546;28;20206;-68
2022/10/03 05:23:18;;;;;;;14.83;7.50;;;;;;;-142.65;96.55;50168.78;5075873;28;20196;-68
2022/10/03 05:26:00;;;;;;;11.80;7.80;;;;;;;-142.65;96.39;50174.75;5094176;28;20190;-68
2022/10/03 05:29:02;;;;;;;11.97;8.50;;;;;;;-142.65;96.42;50182.72;5094095;28;20243;-68
2022/10/03 05:32:06;;;;;;;13.10;8.10;;;;;;;-142.65;96.26;50168.78;5093860;28;20178;-68
2022/10/03 05:35:11;;;;;;;10.60;7.20;;;;;;;-142.65;96.35;50178.75;5093751;28;20216;-68
2022/10/03 05:38:11;;;;;;;14.53;8.30;;;;;;;-142.65;96.14;50174.75;5043148;28;20212;-68
2022/10/03 05:40:42;;;;;;;14.13;6.50;;;;;;;-142.65;96.23;50170.78;5055234;28;20220;-68
2022/10/03 05:43:47;;;;;;;10.43;7.97;;;;;;;-142.65;96.21;50172.78;5093681;28;20624;-68
2022/10/03 05:46:37;;;;;;;16.67;8.13;;;;;;;-142.65;95.99;50176.75;5093161;28;20224;-68
2022/10/03 05:49:41;;;;;;;9.77;8.27;;;;;;;-142.65;96.03;50168.78;5093801;28;20209;-68
2022/10/03 05:52:27;;;;;;;13.50;8.73;;;;;;;;;;5094094;28;20184;-68
2022/10/03 05:55:12;;;;;;;10.93;8.20;;;;;;;-142.65;96.20;50162.81;5093790;28;20260;-68
2022/10/03 05:57:41;;;;;;;10.17;7.53;;;;;;;;;;5093286;28;20670;-68
2022/10/03 06:00:19;;;;;;;7.37;6.80;;;;;;;-142.65;96.39;50174.75;5093623;28;20216;-68
2022/10/03 06:02:56;;;;;;;9.37;8.43;;;;;;;;;;5093956;28;20190;-68
2022/10/03 06:05:44;;;;;;;8.10;7.30;;;;;;;;;;5093570;28;20208;-68
2022/10/03 06:08:13;;;;;;;11.60;8.13;;;;;;;;;;5093385;28;20185;-68
2022/10/03 06:10:49;;;;;;;9.50;8.43;;;;;;;-142.65;96.70;50170.78;5093239;28;20216;-68
2022/10/03 06:13:50;;;;;;;11.50;7.23;;;;;;;-142.65;96.88;50180.75;5093280;28;20198;-68
2022/10/03 06:16:30;;;;;;;14.50;8.13;;;;;;;-142.65;96.94;50170.78;5093286;28;20176;-68
2022/10/03 06:19:06;;;;;;;9.33;8.40;;;;;;;-142.65;96.88;50178.75;5093386;28;20240;-68
2022/10/03 06:21:32;;;;;;;12.33;9.30;;;;;;;;;;5093791;28;20183;-68
2022/10/03 06:24:17;;;;;;;13.53;9.00;;;;;;;-142.65;97.15;50170.78;5093170;28;20267;-68
2022/10/03 06:26:57;;;;;;;10.80;9.80;;;;;;;;;;5093334;28;20208;-68
2022/10/03 06:29:37;;;;;;;13.70;9.83;;;;;;;-142.65;97.35;50168.78;5093261;28;20710;-68
2022/10/03 06:32:10;;;;;;;15.57;9.53;;;;;;;;;;5093151;28;20184;-68
2022/10/03 06:34:55;;;;;;;18.33;11.83;;;;;;;-142.65;97.33;50178.75;5093070;28;20186;-68
2022/10/03 06:37:56;;;;;;;16.07;10.53;;;;;;;-142.65;97.78;50168.78;5093406;28;20177;-68
2022/10/03 06:40:41;;;;;;;19.90;10.90;;;;;;;-142.65;97.91;50168.78;5093323;28;20209;-68
2022/10/03 06:43:38;;;;;;;15.33;11.13;;;;;;;-142.65;97.82;50168.78;5093348;28;20189;-68
2022/10/03 06:46:46;;;;;;;14.13;10.67;;;;;;;-142.65;97.74;50170.78;5093254;28;20268;-68
2022/10/03 06:49:21;;;;;;;19.13;11.23;;;;;;;-142.65;97.75;50172.78;5092937;28;20727;-68
2022/10/03 06:51:59;;;;;;;12.70;10.40;;;;;;;-142.65;97.85;50172.78;5092934;28;20181;-68
2022/10/03 06:55:04;;;;;;;20.13;10.40;;;;;;;-142.65;98.06;50170.78;5093501;28;20508;-68
2022/10/03 06:57:44;;;;;;;15.27;9.70;;;;;;;-142.65;98.04;50176.75;5093269;28;20624;-68
2022/10/03 07:00:17;;;;;;;21.47;11.00;;;;;;;-142.65;98.21;50174.75;5092910;28;20216;-68
2022/10/03 07:03:30;;;;;;;20.60;11.17;;;;;;;-142.65;98.06;50174.75;5092875;28;20178;-68
2022/10/03 07:06:08;;;;;;;27.67;10.80;;;;;;;-142.65;98.02;50172.78;5093017;28;20228;-68
2022/10/03 07:09:09;;;;;;;18.93;11.53;;;;;;;-142.65;98.09;50178.75;5094503;28;20200;-69
2022/10/03 07:12:12;;;;;;;21.33;12.73;;;;;;;-142.65;98.31;50170.78;5096841;28;20193;-68
2022/10/03 07:14:47;;;;;;;19.13;13.07;;;;;;;-142.65;98.64;50174.75;5097001;28;20185;-68
2022/10/03 07:17:44;;;;;;;26.90;13.00;;;;;;;-142.65;98.65;50162.81;5096662;28;20196;-68
2022/10/03 07:20:28;;;;;;;17.03;12.23;;;;;;;-142.65;98.59;50170.78;5096516;28;20205;-68
2022/10/03 07:23:20;;;;;;;26.17;13.07;;;;;;;-142.65;98.62;50174.75;5096552;28;20182;-68
2022/10/03 07:26:12;;;;;;;20.33;13.20;;;;;;;-142.65;98.55;50180.75;5096179;28;20177;-68
2022/10/03 07:29:16;;;;;;;29.47;13.37;;;;;;;-142.65;98.60;50172.78;5049578;28;20209;-69
2022/10/03 07:32:06;;;;;;;22.47;12.90;;;;;;;-142.65;98.67;50170.78;5096391;28;20579;-68
2022/10/03 07:35:00;;;;;;;22.40;13.40;;;;;;;-142.65;98.48;50168.78;5096247;28;20170;-68
2022/10/03 07:40:58;;;;;;;24.30;14.30;;;;;;;-142.65;98.62;50178.75;5095851;28;20252;-69
2022/10/03 07:43:48;;;;;;;22.93;12.23;;;;;;;-142.65;98.36;50170.78;5096133;28;20188;-68
2022/10/03 07:46:40;;;;;;;24.33;14.17;;;;;;;-142.65;98.07;50168.78;5095694;28;20572;-68
2022/10/03 07:49:43;;;;;;;28.50;14.13;;;;;;;-142.65;97.69;50170.78;5095878;28;20236;-68
2022/10/03 07:52:14;;;;;;;19.70;12.80;;;;;;;;;;5096250;28;20635;-68
2022/10/03 07:55:17;;;;;;;22.57;13.07;;;;;;;-142.65;97.37;50170.78;5095633;28;20193;-68
2022/10/03 07:58:05;;;;;;;33.63;13.00;;;;;;;-142.65;97.15;50164.81;5095584;28;20197;-68
2022/10/03 08:00:50;;;;;;;32.00;13.03;;;;;;;;;;5095511;28;20209;-68
2022/10/03 08:03:50;;;;;;;21.23;12.43;;;;;;;-142.65;97.11;50168.78;5095972;28;20181;-68
2022/10/03 08:06:23;;;;;;;23.57;13.50;;;;;;;-142.65;96.67;50178.75;5095897;28;20246;-68
2022/10/03 08:09:18;;;;;;;16.10;12.10;;;;;;;-142.65;96.83;50170.78;5095837;28;20174;-68
2022/10/03 08:12:13;;;;;;;17.80;11.90;;;;;;;-142.65;96.49;50170.78;5084526;28;20213;-69
2022/10/03 08:14:49;;;;;;;23.20;12.27;;;;;;;-142.65;95.66;50170.78;5095243;28;20185;-68
2022/10/03 08:17:24;;;;;;;26.10;11.77;;;;;;;;;;5095531;28;20553;-68
2022/10/03 08:20:10;;;;;;;25.00;11.63;;;;;;;-142.65;95.00;50168.78;5094144;28;20213;-69
2022/10/03 08:22:52;;;;;;;15.93;9.67;;;;;;;-142.65;95.04;50170.78;5095385;28;20178;-68
2022/10/03 08:25:52;;;;;;;15.37;10.33;;;;;;;-142.65;94.45;50170.78;5095624;28;20603;-68
2022/10/03 08:28:21;;;;;;;18.53;10.10;;;;;;;-142.65;94.10;50170.78;5094892;28;20197;-68
2022/10/03 08:31:13;;;;;;;17.73;11.20;;;;;;;-142.65;94.47;50180.75;5094874;28;20218;-68
2022/10/03 08:34:10;;;;;;;11.43;10.23;;;;;;;-142.65;94.04;50162.81;5095241;28;20170;-68
2022/10/03 08:36:55;;;;;;;15.43;11.90;;;;;;;-142.65;94.13;50170.78;5095125;28;20544;-68
2022/10/03 08:39:34;;;;;;;23.73;10.73;;;;;;;-142.65;93.64;50170.78;5094925;28;20217;-68
2022/10/03 08:42:19;;;;;;;14.47;10.07;;;;;;;;;;5094917;28;20193;-68
2022/10/03 08:44:53;;;;;;;13.40;10.07;;;;;;;;;;5094645;28;20174;-68
2022/10/03 08:48:01;;;;;;;18.40;10.60;;;;;;;-142.65;93.01;50164.81;5094854;28;20658;-68
2022/10/03 08:50:46;;;;;;;15.67;10.70;;;;;;;;;;5094573;28;20217;-68
2022/10/03 08:53:46;;;;;;;14.97;9.80;;;;;;;-142.65;92.88;50168.78;5094704;28;20178;-68
2022/10/03 08:56:31;;;;;;;26.37;10.87;;;;;;;;;;5095002;28;20182;-68
2022/10/03 08:59:07;;;;;;;21.53;11.40;;;;;;;-142.65;92.41;50118.97;5094974;28;20209;-68
2022/10/03 09:01:50;;;;;;;18.23;9.83;;;;;;;-142.65;91.92;50174.75;5094872;28;20545;-68
2022/10/03 09:04:38;;;;;;;13.23;8.33;;;;;;;-142.65;91.75;50170.78;5094592;28;20540;-68
2022/10/03 09:07:20;;;;;;;13.67;9.50;;;;;;;-142.65;91.67;50164.81;5094774;28;20521;-68
2022/10/03 09:10:08;;;;;;;22.33;9.47;;;;;;;-142.65;91.03;50170.78;5094836;28;20214;-68
2022/10/03 09:12:35;;;;;;;17.53;10.60;;;;;;;;;;5094214;28;20682;-68
2022/10/03 09:15:10;;;;;;;15.30;9.50;;;;;;;;;;5093978;28;20197;-69
2022/10/03 09:18:25;;;;;;;18.67;9.07;;;;;;;-142.65;89.96;50176.75;5094049;28;20517;-67
2022/10/03 09:21:23;;;;;;;14.60;8.70;;;;;;;-142.65;89.77;50170.78;5094293;28;20201;-68
2022/10/03 09:23:56;;;;;;;14.57;9.23;;;;;;;-142.65;88.90;50162.81;5093899;28;20182;-68
2022/10/03 09:27:00;;;;;;;12.67;8.17;;;;;;;-142.65;88.96;50170.78;5094084;28;20189;-68
2022/10/03 09:30:03;;;;;;;9.33;7.60;;;;;;;-142.65;88.71;50168.78;5093976;28;20205;-68
2022/10/03 09:32:56;;;;;;;8.53;7.50;;;;;;;-142.65;87.55;50168.78;5094024;28;20563;-68
2022/10/03 09:35:47;;;;;;;7.00;6.30;;;;;;;-142.65;87.18;50170.78;5093704;28;20196;-68
2022/10/03 09:38:38;;;;;;;7.87;5.90;;;;;;;-142.65;87.50;50164.81;5093920;28;20189;-67
2022/10/03 09:41:23;;;;;;;11.67;6.13;;;;;;;;;;5093984;28;20638;-68
2022/10/03 09:44:08;;;;;;;8.30;5.40;;;;;;;;;;5094060;28;20181;-68
2022/10/03 09:47:21;;;;;;;8.43;5.67;;;;;;;-142.65;85.63;50168.78;5093335;28;20205;-68
2022/10/03 09:49:57;;;;;;;15.93;6.57;;;;;;;-142.65;83.94;50162.81;5093411;28;20209;-68
2022/10/03 09:52:40;;;;;;;16.57;6.20;;;;;;;;;;5094055;28;20173;-68
2022/10/03 09:55:39;;;;;;;6.80;6.23;;;;;;;-142.65;83.97;50164.81;5093803;28;20193;-68
2022/10/03 09:58:17;;;;;;;6.73;4.73;;;;;;;-142.65;84.01;50170.78;5093717;28;20177;-68
2022/10/03 10:01:02;;;;;;;5.33;4.83;;;;;;;;;;5093331;28;20209;-68
2022/10/03 10:03:44;;;;;;;5.50;4.37;;;;;;;-142.65;83.25;50164.81;5093695;28;20182;-68
2022/10/03 10:06:35;;;;;;;5.47;5.17;;;;;;;-142.65;82.74;50162.81;5093370;28;20224;-68
2022/10/03 10:09:08;;;;;;;17.60;4.27;;;;;;;-142.65;81.68;50164.81;5093753;28;20201;-68
2022/10/03 10:12:00;;;;;;;9.43;4.00;;;;;;;-142.65;82.04;50162.81;5093805;28;20196;-68
2022/10/03 10:15:06;;;;;;;6.40;4.33;;;;;;;-142.65;82.64;50162.81;5093297;28;20178;-68
2022/10/03 10:17:51;;;;;;;8.83;4.00;;;;;;;;;;5093539;28;20184;-68
2022/10/03 10:20:21;;;;;;;9.03;3.47;;;;;;;-142.65;81.50;50162.81;5093175;28;20197;-68
2022/10/03 10:23:06;;;;;;;9.20;3.73;;;;;;;;;;5093222;28;20193;-68
2022/10/03 10:25:57;;;;;;;8.10;3.40;;;;;;;-142.65;81.44;50162.81;5093460;28;20204;-68
2022/10/03 10:28:37;;;;;;;5.23;2.60;;;;;;;;;;5093507;28;20209;-68
2022/10/03 10:31:43;;;;;;;5.03;2.60;;;;;;;-142.65;79.11;50162.81;5093130;28;20213;-68
2022/10/03 10:34:41;;;;;;;6.33;2.23;;;;;;;-142.65;80.11;50162.81;5093049;28;20260;-68
2022/10/03 10:37:17;;;;;;;5.67;3.10;;;;;;;;;;5093069;28;20177;-69
2022/10/03 10:40:06;;;;;;;7.43;2.73;;;;;;;-142.65;79.36;50168.78;5093008;28;20217;-68
2022/10/03 10:43:05;;;;;;;5.10;2.83;;;;;;;;;;5093844;28;20178;-68
2022/10/03 10:45:44;;;;;;;3.43;1.57;;;;;;;-142.65;76.89;50164.81;5097532;28;20182;-68
2022/10/03 10:48:17;;;;;;;1.43;1.33;;;;;;;-142.65;76.27;50168.78;5097429;28;20255;-68
2022/10/03 10:50:55;;;;;;;7.37;2.03;;;;;;;;;;5097102;28;20575;-68
2022/10/03 10:53:40;;;;;;;3.20;1.70;;;;;;;;;;5096832;28;20219;-67
2022/10/03 10:56:26;;;;;;;7.47;1.93;;;;;;;;;;5097304;28;20178;-68
2022/10/03 10:59:23;;;;;;;1.53;1.40;;;;;;;-142.65;76.35;50162.81;5096647;28;20205;-69
2022/10/03 11:02:18;;;;;;;4.17;1.83;;;;;;;-142.65;75.15;50162.81;5096965;28;20190;-68
2022/10/03 11:05:05;;;;;;;2.17;2.03;;;;;;;;;;5097200;28;20193;-68
2022/10/03 11:07:32;;;;;;;5.47;1.40;;;;;;;;;;5097147;28;20655;-68
2022/10/03 11:10:27;;;;;;;3.80;1.10;;;;;;;-142.65;73.94;50162.81;5096451;28;20216;-68
2022/10/03 11:13:13;;;;;;;2.03;1.43;;;;;;;;;;5096435;28;20201;-68
2022/10/03 11:15:58;;;;;;;4.73;1.90;;;;;;;;;;5097004;28;20166;-68
2022/10/03 11:18:33;;;;;;;4.23;1.53;;;;;;;;;;5096659;28;20170;-68
2022/10/03 11:21:24;;;;;;;1.83;1.40;;;;;;;-142.65;76.83;50164.81;5096738;28;20212;-68
2022/10/03 11:24:06;;;;;;;2.13;1.30;;;;;;;-142.65;73.14;50164.81;5096538;28;20178;-68
2022/10/03 11:27:06;;;;;;;1.87;1.77;;;;;;;-142.65;73.50;50162.81;5096696;28;20174;-68
2022/10/03 11:29:48;;;;;;;2.73;1.60;;;;;;;-142.65;72.07;50162.81;5096094;28;20202;-68
2022/10/03 11:32:32;;;;;;;1.80;1.70;;;;;;;-142.65;72.80;50172.78;5096413;28;20538;-68
2022/10/03 11:35:16;;;;;;;2.10;2.10;;;;;;;;;;5096071;28;20178;-68
2022/10/03 11:37:44;;;;;;;1.30;1.30;;;;;;;;;;5096486;28;20520;-68
2022/10/03 11:40:35;;;;;;;1.93;1.40;;;;;;;-142.65;71.41;50160.81;5095878;28;20216;-68
2022/10/03 11:43:01;;;;;;;1.20;1.20;;;;;;;;;;5096482;28;20183;-68
2022/10/03 11:45:38;;;;;;;6.23;1.20;;;;;;;;;;5095808;28;20196;-68
2022/10/03 11:48:11;;;;;;;3.43;2.20;;;;;;;;;;5095737;28;20194;-68
2022/10/03 11:50:43;;;;;;;3.87;1.70;;;;;;;;;;5095905;28;20205;-68
2022/10/03 11:53:14;;;;;;;4.43;1.40;;;;;;;;;;5095474;28;20257;-68
2022/10/03 11:55:41;;;;;;;1.57;1.43;;;;;;;;;;5095641;28;20186;-68
2022/10/03 11:58:33;;;;;;;1.40;1.40;;;;;;;-142.65;72.17;50168.78;5095879;28;20188;-68
2022/10/03 12:01:27;;;;;;;2.00;1.47;;;;;;;-142.65;71.33;50168.78;5095639;28;20515;-68
2022/10/03 12:04:10;;;;;;;2.80;1.20;;;;;;;-142.65;70.23;50168.78;5095718;28;20174;-68
2022/10/03 12:10:07;;;;;;;1.13;1.13;;;;;;;-142.65;72.07;50160.81;5095668;28;20577;-68
2022/10/03 12:12:34;;;;;;;8.20;1.00;;;;;;;;;;5095210;28;20668;-68
2022/10/03 12:15:13;;;;;;;1.47;1.43;;;;;;;;;;5095291;28;20204;-68
2022/10/03 12:17:49;;;;;;;3.40;1.30;;;;;;;-142.65;71.11;50168.78;5095558;28;20170;-68
2022/10/03 12:20:34;;;;;;;5.57;2.03;;;;;;;;;;5095092;28;20206;-68
2022/10/03 12:23:37;;;;;;;4.00;1.20;;;;;;;-142.65;73.29;50168.78;5095141;28;20181;-68
2022/10/03 12:26:09;;;;;;;3.87;2.23;;;;;;;-142.65;72.61;50162.81;5095299;28;20182;-68
2022/10/03 12:28:43;;;;;;;5.00;1.90;;;;;;;-142.65;72.83;50164.81;5094881;28;20232;-68
2022/10/03 12:31:19;;;;;;;8.07;1.63;;;;;;;-142.65;72.83;50160.81;5095016;28;20177;-68
2022/10/03 12:34:23;;;;;;;3.70;1.40;;;;;;;-142.65;71.40;50162.81;5095224;28;20192;-68
2022/10/03 12:36:57;;;;;;;1.50;1.40;;;;;;;;;;5094971;28;20174;-68
2022/10/03 12:39:47;;;;;;;2.50;1.43;;;;;;;-142.65;71.73;50170.78;5095238;28;20206;-68
2022/10/03 12:42:52;;;;;;;2.30;1.70;;;;;;;-142.65;72.55;50164.81;5095326;28;20178;-68
2022/10/03 12:45:44;;;;;;;2.50;1.43;;;;;;;-142.65;74.04;50162.81;5056702;28;20575;-68
2022/10/03 12:48:47;;;;;;;2.53;1.70;;;;;;;-142.65;72.66;50162.81;5094601;28;20236;-68
2022/10/03 12:51:42;;;;;;;3.10;1.60;;;;;;;-142.65;73.35;50168.78;5091127;28;20212;-68
2022/10/03 12:54:34;;;;;;;3.33;1.47;;;;;;;-142.65;72.20;50164.81;5081534;28;20194;-68
2022/10/03 12:57:10;;;;;;;1.83;1.83;;;;;;;;;;5094792;28;20170;-68
2022/10/03 13:00:11;;;;;;;3.07;1.40;;;;;;;-142.65;74.62;50164.81;5094643;28;20568;-68
2022/10/03 13:02:57;;;;;;;3.10;1.40;;;;;;;-142.65;73.49;50164.81;5094649;28;20182;-68
2022/10/03 13:05:29;;;;;;;6.33;1.70;;;;;;;;;;5093962;28;20541;-68
2022/10/03 13:08:00;;;;;;;3.17;1.80;;;;;;;-142.65;73.59;50168.78;5094441;28;20193;-68
2022/10/03 13:10:38;;;;;;;5.70;1.90;;;;;;;;;;5094091;28;20206;-68
2022/10/03 13:13:14;;;;;;;2.33;2.10;;;;;;;;;;5094120;28;20193;-68
2022/10/03 13:16:19;;;;;;;2.03;1.83;;;;;;;-142.65;75.54;50164.81;5094132;28;20185;-68
2022/10/03 13:18:50;;;;;;;3.30;1.50;;;;;;;-142.65;73.62;50160.81;5012053;28;20239;-68
2022/10/03 13:22:02;;;;;;;3.07;2.90;;;;;;;-142.65;71.23;50168.78;5012199;28;20551;-68
2022/10/03 13:24:38;;;;;;;7.67;3.37;;;;;;;;;;5079199;28;20200;-68
2022/10/03 13:27:32;;;;;;;4.23;2.80;;;;;;;-142.65;71.59;50164.81;5094047;28;20181;-68